createdAt,value
2018-03-08T00:00:12.775Z,971.75
2018-03-08T00:01:12.985Z,971.82
2018-03-08T00:02:13.196Z,971.81
2018-03-08T00:03:13.408Z,971.86
2018-03-08T00:04:13.602Z,971.84
2018-03-08T00:05:13.829Z,971.85
2018-03-08T00:06:14.041Z,971.84
2018-03-08T00:07:14.252Z,971.87
2018-03-08T00:08:14.477Z,971.87
2018-03-08T00:09:14.675Z,971.87
2018-03-08T00:10:14.885Z,971.90
2018-03-08T00:11:15.096Z,971.94
2018-03-08T00:12:15.309Z,971.93
2018-03-08T00:13:15.516Z,971.91
2018-03-08T00:14:15.729Z,971.96
2018-03-08T00:15:15.940Z,971.94
2018-03-08T00:16:16.152Z,971.99
2018-03-08T00:17:16.358Z,971.93
2018-03-08T00:18:16.570Z,971.92
2018-03-08T00:19:16.787Z,971.94
2018-03-08T00:20:17.000Z,971.93
2018-03-08T00:21:17.213Z,971.99
2018-03-08T00:22:17.422Z,972.01
2018-03-08T00:23:17.633Z,972.02
2018-03-08T00:24:17.845Z,971.99
2018-03-08T00:25:18.057Z,972.03
2018-03-08T00:26:18.269Z,972.04
2018-03-08T00:27:18.489Z,971.99
2018-03-08T00:28:18.690Z,972.05
2018-03-08T00:29:18.901Z,972.08
2018-03-08T00:30:19.137Z,972.08
2018-03-08T00:31:19.327Z,972.09
2018-03-08T00:32:19.538Z,972.09
2018-03-08T00:33:19.750Z,972.12
2018-03-08T00:34:19.961Z,972.12
2018-03-08T00:35:20.173Z,972.10
2018-03-08T00:36:20.385Z,972.13
2018-03-08T00:37:20.596Z,972.18
2018-03-08T00:38:20.808Z,972.19
2018-03-08T00:39:21.020Z,972.20
2018-03-08T00:40:21.233Z,972.18
2018-03-08T00:41:21.443Z,972.23
2018-03-08T00:42:21.664Z,972.19
2018-03-08T00:43:21.860Z,972.22
2018-03-08T00:44:22.082Z,972.25
2018-03-08T00:45:22.294Z,972.21
2018-03-08T00:46:22.506Z,972.23
2018-03-08T00:47:22.716Z,972.24
2018-03-08T00:48:22.928Z,972.24
2018-03-08T00:49:23.135Z,972.25
2018-03-08T00:50:23.350Z,972.25
2018-03-08T00:51:23.582Z,972.34
2018-03-08T00:52:23.780Z,972.32
2018-03-08T00:53:23.991Z,972.36
2018-03-08T00:54:24.194Z,972.35
2018-03-08T00:55:24.408Z,972.34
2018-03-08T00:56:24.619Z,972.35
2018-03-08T00:57:24.831Z,972.34
2018-03-08T00:58:25.043Z,972.38
2018-03-08T00:59:25.254Z,972.37
2018-03-08T01:00:25.477Z,972.36
2018-03-08T01:01:25.685Z,972.35
2018-03-08T01:02:25.900Z,972.33
2018-03-08T01:03:26.107Z,972.39
2018-03-08T01:04:26.318Z,972.38
2018-03-08T01:05:26.540Z,972.37
2018-03-08T01:06:26.766Z,972.34
2018-03-08T01:07:26.961Z,972.41
2018-03-08T01:08:27.172Z,972.36
2018-03-08T01:09:27.369Z,972.43
2018-03-08T01:10:27.593Z,972.38
2018-03-08T01:11:27.802Z,972.45
2018-03-08T01:12:28.013Z,972.44
2018-03-08T01:13:28.226Z,972.53
2018-03-08T01:14:28.438Z,972.51
2018-03-08T01:15:28.648Z,972.51
2018-03-08T01:16:28.861Z,972.50
2018-03-08T01:17:29.070Z,972.49
2018-03-08T01:18:29.282Z,972.52
2018-03-08T01:19:29.770Z,972.58
2018-03-08T01:20:29.751Z,972.57
2018-03-08T01:21:29.966Z,972.66
2018-03-08T01:22:30.177Z,972.59
2018-03-08T01:23:30.386Z,972.57
2018-03-08T01:24:30.598Z,972.56
2018-03-08T01:25:30.810Z,972.57
2018-03-08T01:26:31.023Z,972.59
2018-03-08T01:27:31.233Z,972.60
2018-03-08T01:28:31.445Z,972.58
2018-03-08T01:29:31.659Z,972.54
2018-03-08T01:30:31.869Z,972.58
2018-03-08T01:31:32.079Z,972.60
2018-03-08T01:32:32.289Z,972.60
2018-03-08T01:33:32.501Z,972.57
2018-03-08T01:34:32.710Z,972.58
2018-03-08T01:35:32.922Z,972.66
2018-03-08T01:36:33.117Z,972.60
2018-03-08T01:37:33.341Z,972.57
2018-03-08T01:38:33.552Z,972.56
2018-03-08T01:39:33.760Z,972.63
2018-03-08T01:40:33.979Z,972.63
2018-03-08T01:41:34.186Z,972.61
2018-03-08T01:42:34.389Z,972.68
2018-03-08T01:43:34.610Z,972.67
2018-03-08T01:44:34.821Z,972.67
2018-03-08T01:45:35.031Z,972.75
2018-03-08T01:46:35.245Z,972.69
2018-03-08T01:47:35.456Z,972.67
2018-03-08T01:48:35.672Z,972.70
2018-03-08T01:49:35.870Z,972.72
2018-03-08T01:50:36.086Z,972.74
2018-03-08T01:51:36.294Z,972.79
2018-03-08T01:52:36.503Z,972.74
2018-03-08T01:53:36.713Z,972.75
2018-03-08T01:54:36.923Z,972.73
2018-03-08T01:55:37.129Z,972.76
2018-03-08T01:56:37.340Z,972.79
2018-03-08T01:57:37.549Z,972.75
2018-03-08T01:58:37.752Z,972.77
2018-03-08T01:59:37.957Z,972.75
2018-03-08T02:00:38.175Z,972.76
2018-03-08T02:01:38.380Z,972.78
2018-03-08T02:02:38.599Z,972.81
2018-03-08T02:03:38.802Z,972.79
2018-03-08T02:04:39.011Z,972.81
2018-03-08T02:05:39.225Z,972.85
2018-03-08T02:06:39.442Z,972.89
2018-03-08T02:07:39.647Z,972.89
2018-03-08T02:08:39.860Z,972.86
2018-03-08T02:09:40.072Z,972.88
2018-03-08T02:10:40.281Z,972.90
2018-03-08T02:11:40.495Z,972.88
2018-03-08T02:12:40.706Z,972.88
2018-03-08T02:13:40.916Z,972.93
2018-03-08T02:14:41.122Z,972.89
2018-03-08T02:15:41.335Z,972.94
2018-03-08T02:16:41.545Z,972.95
2018-03-08T02:17:41.764Z,972.93
2018-03-08T02:18:41.969Z,972.96
2018-03-08T02:19:42.184Z,972.99
2018-03-08T02:20:42.396Z,972.98
2018-03-08T02:21:42.610Z,973.02
2018-03-08T02:22:49.940Z,973.02
2018-03-08T02:23:43.050Z,973.04
2018-03-08T02:24:49.399Z,973.01
2018-03-08T02:25:49.766Z,972.99
2018-03-08T02:26:50.347Z,973.04
2018-03-08T02:27:50.496Z,973.02
2018-03-08T02:28:51.875Z,973.01
2018-03-08T02:29:52.310Z,973.05
2018-03-08T02:30:45.185Z,973.10
2018-03-08T02:31:45.738Z,973.11
2018-03-08T02:32:45.861Z,973.06
2018-03-08T02:33:46.182Z,973.03
2018-03-08T02:34:46.021Z,973.06
2018-03-08T02:35:46.231Z,973.01
2018-03-08T02:36:46.475Z,973.06
2018-03-08T02:37:46.648Z,973.05
2018-03-08T02:38:46.866Z,973.07
2018-03-08T02:39:47.080Z,973.14
2018-03-08T02:40:47.289Z,973.12
2018-03-08T02:41:47.490Z,973.11
2018-03-08T02:42:47.705Z,973.15
2018-03-08T02:43:47.912Z,973.16
2018-03-08T02:44:48.116Z,973.17
2018-03-08T02:45:48.330Z,973.21
2018-03-08T02:46:48.535Z,973.17
2018-03-08T02:47:48.749Z,973.18
2018-03-08T02:48:48.960Z,973.20
2018-03-08T02:49:49.172Z,973.20
2018-03-08T02:50:49.379Z,973.21
2018-03-08T02:51:49.607Z,973.23
2018-03-08T02:52:49.818Z,973.25
2018-03-08T02:53:50.021Z,973.28
2018-03-08T02:54:50.227Z,973.28
2018-03-08T02:55:50.441Z,973.26
2018-03-08T02:56:50.654Z,973.29
2018-03-08T02:57:50.865Z,973.29
2018-03-08T02:58:51.089Z,973.26
2018-03-08T02:59:51.284Z,973.27
2018-03-08T03:00:51.495Z,973.31
2018-03-08T03:01:51.707Z,973.37
2018-03-08T03:02:51.918Z,973.34
2018-03-08T03:03:52.123Z,973.36
2018-03-08T03:04:52.340Z,973.36
2018-03-08T03:05:52.552Z,973.39
2018-03-08T03:06:52.766Z,973.35
2018-03-08T03:07:52.970Z,973.33
2018-03-08T03:08:53.189Z,973.35
2018-03-08T03:09:53.419Z,973.36
2018-03-08T03:10:53.594Z,973.38
2018-03-08T03:11:53.806Z,973.32
2018-03-08T03:12:54.018Z,973.36
2018-03-08T03:13:54.229Z,973.35
2018-03-08T03:14:54.449Z,973.32
2018-03-08T03:15:54.662Z,973.30
2018-03-08T03:16:54.874Z,973.30
2018-03-08T03:17:55.086Z,973.27
2018-03-08T03:18:55.291Z,973.30
2018-03-08T03:19:55.504Z,973.32
2018-03-08T03:20:55.716Z,973.32
2018-03-08T03:21:55.926Z,973.29
2018-03-08T03:22:56.137Z,973.27
2018-03-08T03:23:56.357Z,973.33
2018-03-08T03:24:56.559Z,973.32
2018-03-08T03:25:56.770Z,973.33
2018-03-08T03:26:56.981Z,973.37
2018-03-08T03:27:57.189Z,973.33
2018-03-08T03:28:57.405Z,973.34
2018-03-08T03:29:57.615Z,973.34
2018-03-08T03:30:57.828Z,973.39
2018-03-08T03:31:58.038Z,973.34
2018-03-08T03:32:58.250Z,973.36
2018-03-08T03:33:58.462Z,973.43
2018-03-08T03:34:58.665Z,973.40
2018-03-08T03:35:58.884Z,973.42
2018-03-08T03:36:59.096Z,973.36
2018-03-08T03:37:59.302Z,973.43
2018-03-08T03:38:59.504Z,973.40
2018-03-08T03:39:59.715Z,973.43
2018-03-08T03:40:59.928Z,973.44
2018-03-08T03:42:00.135Z,973.51
2018-03-08T03:43:00.334Z,973.47
2018-03-08T03:44:00.546Z,973.51
2018-03-08T03:45:00.760Z,973.45
2018-03-08T03:46:00.979Z,973.51
2018-03-08T03:47:01.176Z,973.56
2018-03-08T03:48:01.388Z,973.58
2018-03-08T03:49:01.599Z,973.59
2018-03-08T03:50:01.813Z,973.61
2018-03-08T03:51:02.022Z,973.62
2018-03-08T03:52:02.233Z,973.62
2018-03-08T03:53:02.453Z,973.59
2018-03-08T03:54:02.641Z,973.65
2018-03-08T03:55:02.847Z,973.67
2018-03-08T03:56:03.056Z,973.67
2018-03-08T03:57:03.266Z,973.67
2018-03-08T03:58:03.479Z,973.74
2018-03-08T03:59:03.689Z,973.77
2018-03-08T04:00:03.905Z,973.78
2018-03-08T04:01:04.108Z,973.72
2018-03-08T04:02:04.323Z,973.80
2018-03-08T04:03:04.539Z,973.83
2018-03-08T04:04:04.743Z,973.80
2018-03-08T04:05:04.946Z,973.84
2018-03-08T04:06:05.156Z,973.82
2018-03-08T04:07:05.367Z,973.83
2018-03-08T04:08:05.573Z,973.80
2018-03-08T04:09:05.778Z,973.85
2018-03-08T04:10:05.992Z,973.87
2018-03-08T04:11:06.198Z,973.87
2018-03-08T04:12:06.414Z,973.97
2018-03-08T04:13:06.622Z,973.94
2018-03-08T04:14:06.828Z,974.02
2018-03-08T04:15:07.039Z,973.99
2018-03-08T04:16:07.256Z,974.03
2018-03-08T04:17:07.460Z,974.03
2018-03-08T04:18:07.671Z,974.07
2018-03-08T04:19:07.891Z,974.05
2018-03-08T04:20:08.099Z,974.05
2018-03-08T04:21:08.306Z,974.02
2018-03-08T04:22:08.519Z,974.07
2018-03-08T04:23:08.736Z,974.06
2018-03-08T04:24:08.946Z,974.08
2018-03-08T04:25:09.157Z,974.10
2018-03-08T04:26:09.373Z,974.12
2018-03-08T04:27:09.584Z,974.13
2018-03-08T04:28:09.794Z,974.14
2018-03-08T04:29:10.005Z,974.21
2018-03-08T04:30:10.215Z,974.17
2018-03-08T04:31:10.425Z,974.21
2018-03-08T04:32:10.634Z,974.23
2018-03-08T04:33:10.851Z,974.22
2018-03-08T04:34:11.064Z,974.22
2018-03-08T04:35:11.272Z,974.27
2018-03-08T04:36:11.483Z,974.26
2018-03-08T04:37:11.697Z,974.25
2018-03-08T04:38:11.907Z,974.25
2018-03-08T04:39:12.118Z,974.23
2018-03-08T04:40:12.327Z,974.23
2018-03-08T04:41:12.546Z,974.28
2018-03-08T04:42:12.757Z,974.27
2018-03-08T04:43:12.968Z,974.28
2018-03-08T04:44:13.185Z,974.32
2018-03-08T04:45:13.397Z,974.26
2018-03-08T04:46:13.606Z,974.30
2018-03-08T04:47:13.818Z,974.34
2018-03-08T04:48:14.030Z,974.37
2018-03-08T04:49:14.249Z,974.33
2018-03-08T04:50:14.465Z,974.32
2018-03-08T04:51:14.669Z,974.32
2018-03-08T04:52:14.881Z,974.34
2018-03-08T04:53:15.092Z,974.31
2018-03-08T04:54:15.305Z,974.34
2018-03-08T04:55:15.523Z,974.38
2018-03-08T04:56:15.727Z,974.39
2018-03-08T04:57:15.940Z,974.37
2018-03-08T04:58:16.152Z,974.40
2018-03-08T04:59:16.362Z,974.39
2018-03-08T05:00:16.581Z,974.41
2018-03-08T05:01:16.784Z,974.38
2018-03-08T05:02:16.995Z,974.42
2018-03-08T05:03:17.202Z,974.39
2018-03-08T05:04:17.418Z,974.42
2018-03-08T05:05:17.625Z,974.41
2018-03-08T05:06:17.833Z,974.44
2018-03-08T05:07:18.046Z,974.45
2018-03-08T05:08:18.252Z,974.44
2018-03-08T05:09:25.622Z,974.45
2018-03-08T05:10:25.823Z,974.47
2018-03-08T05:11:26.044Z,974.48
2018-03-08T05:12:26.290Z,974.49
2018-03-08T05:13:26.724Z,974.49
2018-03-08T05:14:26.740Z,974.48
2018-03-08T05:15:27.209Z,974.47
2018-03-08T05:16:20.077Z,974.50
2018-03-08T05:17:20.325Z,974.55
2018-03-08T05:18:20.495Z,974.57
2018-03-08T05:19:20.706Z,974.56
2018-03-08T05:20:20.920Z,974.61
2018-03-08T05:21:21.125Z,974.64
2018-03-08T05:22:21.339Z,974.64
2018-03-08T05:23:21.543Z,974.66
2018-03-08T05:24:21.762Z,974.63
2018-03-08T05:25:21.963Z,974.66
2018-03-08T05:26:22.186Z,974.66
2018-03-08T05:27:22.383Z,974.67
2018-03-08T05:28:22.595Z,974.68
2018-03-08T05:29:22.805Z,974.68
2018-03-08T05:30:23.018Z,974.73
2018-03-08T05:31:23.230Z,974.75
2018-03-08T05:32:23.440Z,974.69
2018-03-08T05:33:23.652Z,974.76
2018-03-08T05:34:23.864Z,974.78
2018-03-08T05:35:24.075Z,974.79
2018-03-08T05:36:24.286Z,974.78
2018-03-08T05:37:24.499Z,974.78
2018-03-08T05:38:24.715Z,974.79
2018-03-08T05:39:24.923Z,974.81
2018-03-08T05:40:25.136Z,974.82
2018-03-08T05:41:25.347Z,974.84
2018-03-08T05:42:25.571Z,974.84
2018-03-08T05:43:25.775Z,974.79
2018-03-08T05:44:25.982Z,974.84
2018-03-08T05:45:26.214Z,974.89
2018-03-08T05:46:26.407Z,974.89
2018-03-08T05:47:26.620Z,974.95
2018-03-08T05:48:26.847Z,974.93
2018-03-08T05:49:27.058Z,974.95
2018-03-08T05:50:27.255Z,975.00
2018-03-08T05:51:27.481Z,974.99
2018-03-08T05:52:27.694Z,974.98
2018-03-08T05:53:27.900Z,975.01
2018-03-08T05:54:28.129Z,975.02
2018-03-08T05:55:28.323Z,975.07
2018-03-08T05:56:28.536Z,975.13
2018-03-08T05:57:28.745Z,975.07
2018-03-08T05:58:28.977Z,975.09
2018-03-08T05:59:29.196Z,975.10
2018-03-08T06:00:29.387Z,975.07
2018-03-08T06:01:29.600Z,975.15
2018-03-08T06:02:29.809Z,975.14
2018-03-08T06:05:01.549Z,975.17
2018-03-08T06:06:01.758Z,975.18
2018-03-08T06:07:01.974Z,975.27
2018-03-08T06:08:02.187Z,975.28
2018-03-08T06:09:02.399Z,975.31
2018-03-08T06:10:02.617Z,975.32
2018-03-08T06:11:02.818Z,975.34
2018-03-08T06:12:03.029Z,975.34
2018-03-08T06:13:03.242Z,975.32
2018-03-08T06:14:03.454Z,975.39
2018-03-08T06:15:03.658Z,975.46
2018-03-08T06:16:03.880Z,975.44
2018-03-08T06:17:04.088Z,975.50
2018-03-08T06:18:04.298Z,975.51
2018-03-08T06:19:04.501Z,975.51
2018-03-08T06:20:04.704Z,975.54
2018-03-08T06:21:04.913Z,975.58
2018-03-08T06:22:05.126Z,975.53
2018-03-08T06:23:05.339Z,975.56
2018-03-08T06:24:05.557Z,975.57
2018-03-08T06:25:05.790Z,975.60
2018-03-08T06:26:06.008Z,975.59
2018-03-08T06:27:06.219Z,975.64
2018-03-08T06:28:06.431Z,975.65
2018-03-08T06:29:06.641Z,975.68
2018-03-08T06:30:06.856Z,975.73
2018-03-08T06:31:07.074Z,975.78
2018-03-08T06:32:07.280Z,975.78
2018-03-08T06:33:07.492Z,975.77
2018-03-08T06:34:07.692Z,975.82
2018-03-08T06:35:07.916Z,975.83
2018-03-08T06:36:08.128Z,975.79
2018-03-08T06:37:08.339Z,975.75
2018-03-08T06:38:08.551Z,975.80
2018-03-08T06:39:08.763Z,975.80
2018-03-08T06:40:08.974Z,975.79
2018-03-08T06:41:09.187Z,975.87
2018-03-08T06:42:09.390Z,975.89
2018-03-08T06:43:09.602Z,975.88
2018-03-08T06:44:09.814Z,975.84
2018-03-08T06:45:10.028Z,975.88
2018-03-08T06:46:10.245Z,975.90
2018-03-08T06:47:10.456Z,975.93
2018-03-08T06:48:10.668Z,975.91
2018-03-08T06:49:10.879Z,975.92
2018-03-08T06:50:11.091Z,975.96
2018-03-08T06:51:11.302Z,975.95
2018-03-08T06:52:11.509Z,975.97
2018-03-08T06:53:11.728Z,975.98
2018-03-08T06:54:11.936Z,975.99
2018-03-08T06:55:12.148Z,976.05
2018-03-08T06:56:12.360Z,976.00
2018-03-08T06:57:12.571Z,976.02
2018-03-08T06:58:12.791Z,976.01
2018-03-08T06:59:12.997Z,976.06
2018-03-08T07:00:13.207Z,976.02
2018-03-08T07:01:13.420Z,976.06
2018-03-08T07:02:13.639Z,976.03
2018-03-08T07:03:13.843Z,976.05
2018-03-08T07:04:14.050Z,976.03
2018-03-08T07:05:14.260Z,976.10
2018-03-08T07:06:14.473Z,976.11
2018-03-08T07:07:14.688Z,976.09
2018-03-08T07:08:14.893Z,976.12
2018-03-08T07:09:15.097Z,976.10
2018-03-08T07:10:15.309Z,976.10
2018-03-08T07:11:15.519Z,976.14
2018-03-08T07:12:15.733Z,976.20
2018-03-08T07:13:15.943Z,976.20
2018-03-08T07:14:16.157Z,976.25
2018-03-08T07:15:16.368Z,976.22
2018-03-08T07:16:16.571Z,976.21
2018-03-08T07:17:16.783Z,976.19
2018-03-08T07:18:16.996Z,976.22
2018-03-08T07:19:17.219Z,976.24
2018-03-08T07:20:17.432Z,976.26
2018-03-08T07:21:17.645Z,976.27
2018-03-08T07:22:17.854Z,976.30
2018-03-08T07:23:18.064Z,976.32
2018-03-08T07:24:18.278Z,976.35
2018-03-08T07:25:18.488Z,976.31
2018-03-08T07:26:18.698Z,976.32
2018-03-08T07:27:18.915Z,976.34
2018-03-08T07:28:19.125Z,976.37
2018-03-08T07:29:19.328Z,976.40
2018-03-08T07:30:19.542Z,976.40
2018-03-08T07:31:19.754Z,976.39
2018-03-08T07:32:19.971Z,976.38
2018-03-08T07:33:20.175Z,976.41
2018-03-08T07:34:20.394Z,976.37
2018-03-08T07:35:20.595Z,976.34
2018-03-08T07:36:20.807Z,976.34
2018-03-08T07:37:21.026Z,976.41
2018-03-08T07:38:21.225Z,976.42
2018-03-08T07:39:21.436Z,976.37
2018-03-08T07:40:21.648Z,976.38
2018-03-08T07:41:21.864Z,976.38
2018-03-08T07:42:22.076Z,976.37
2018-03-08T07:43:22.291Z,976.39
2018-03-08T07:44:22.495Z,976.43
2018-03-08T07:45:22.708Z,976.39
2018-03-08T07:46:22.924Z,976.43
2018-03-08T07:47:23.151Z,976.47
2018-03-08T07:48:23.347Z,976.45
2018-03-08T07:49:23.558Z,976.41
2018-03-08T07:50:23.773Z,976.45
2018-03-08T07:51:23.986Z,976.43
2018-03-08T07:52:24.195Z,976.45
2018-03-08T07:53:24.406Z,976.48
2018-03-08T07:54:24.618Z,976.49
2018-03-08T07:55:24.834Z,976.45
2018-03-08T07:56:32.168Z,976.41
2018-03-08T07:57:32.382Z,976.40
2018-03-08T07:58:32.613Z,976.42
2018-03-08T07:59:32.824Z,976.39
2018-03-08T08:00:33.058Z,976.37
2018-03-08T08:01:33.300Z,976.36
2018-03-08T08:02:33.525Z,976.38
2018-03-08T08:03:26.627Z,976.37
2018-03-08T08:04:26.851Z,976.38
2018-03-08T08:05:27.057Z,976.35
2018-03-08T08:06:27.266Z,976.36
2018-03-08T08:07:27.471Z,976.37
2018-03-08T08:08:27.689Z,976.36
2018-03-08T08:09:27.901Z,976.38
2018-03-08T08:10:28.153Z,976.37
2018-03-08T08:11:28.327Z,976.38
2018-03-08T08:12:28.530Z,976.36
2018-03-08T08:13:28.754Z,976.35
2018-03-08T08:14:28.968Z,976.35
2018-03-08T08:15:29.174Z,976.31
2018-03-08T08:16:29.387Z,976.38
2018-03-08T08:17:29.596Z,976.40
2018-03-08T08:18:29.814Z,976.41
2018-03-08T08:19:30.020Z,976.35
2018-03-08T08:20:30.222Z,976.40
2018-03-08T08:21:30.440Z,976.43
2018-03-08T08:22:30.743Z,976.43
2018-03-08T08:23:30.957Z,976.37
2018-03-08T08:24:31.169Z,976.37
2018-03-08T08:25:31.412Z,976.37
2018-03-08T08:26:31.595Z,976.44
2018-03-08T08:27:31.804Z,976.38
2018-03-08T08:28:32.008Z,976.37
2018-03-08T08:29:32.227Z,976.31
2018-03-08T08:30:32.429Z,976.34
2018-03-08T08:31:32.666Z,976.31
2018-03-08T08:32:32.862Z,976.35
2018-03-08T08:33:33.078Z,976.35
2018-03-08T08:35:33.496Z,976.37
2018-03-08T08:36:33.707Z,976.34
2018-03-08T08:37:33.904Z,976.32
2018-03-08T08:38:34.137Z,976.37
2018-03-08T08:39:34.346Z,976.35
2018-03-08T08:40:34.558Z,976.33
2018-03-08T08:41:34.773Z,976.37
2018-03-08T08:42:34.982Z,976.33
2018-03-08T08:43:35.192Z,976.32
2018-03-08T08:44:35.410Z,976.41
2018-03-08T08:45:35.620Z,976.34
2018-03-08T08:46:35.835Z,976.44
2018-03-08T08:47:36.049Z,976.37
2018-03-08T08:48:36.223Z,976.42
2018-03-08T08:49:36.444Z,976.36
2018-03-08T08:50:36.646Z,976.33
2018-03-08T08:51:36.859Z,976.33
2018-03-08T08:52:37.075Z,976.37
2018-03-08T08:53:37.289Z,976.36
2018-03-08T08:54:37.542Z,976.34
2018-03-08T08:55:37.713Z,976.35
2018-03-08T08:56:37.924Z,976.32
2018-03-08T08:57:38.246Z,976.35
2018-03-08T08:58:38.340Z,976.33
2018-03-08T08:59:38.535Z,976.35
2018-03-08T09:00:38.737Z,976.34
2018-03-08T09:01:38.960Z,976.37
2018-03-08T09:02:39.171Z,976.32
2018-03-08T09:03:39.383Z,976.32
2018-03-08T09:04:39.595Z,976.35
2018-03-08T09:05:39.806Z,976.36
2018-03-08T09:06:40.033Z,976.39
2018-03-08T09:07:40.272Z,976.37
2018-03-08T09:08:40.459Z,976.32
2018-03-08T09:09:40.672Z,976.36
2018-03-08T09:10:40.889Z,976.35
2018-03-08T09:11:41.076Z,976.35
2018-03-08T09:12:41.323Z,976.37
2018-03-08T09:13:41.537Z,976.33
2018-03-08T09:14:41.742Z,976.29
2018-03-08T09:15:41.961Z,976.27
2018-03-08T09:16:42.173Z,976.26
2018-03-08T09:17:42.362Z,976.31
2018-03-08T09:18:42.555Z,976.28
2018-03-08T09:19:42.773Z,976.26
2018-03-08T09:20:42.992Z,976.24
2018-03-08T09:21:43.198Z,976.22
2018-03-08T09:22:43.397Z,976.25
2018-03-08T09:23:43.640Z,976.18
2018-03-08T09:24:43.837Z,976.20
2018-03-08T09:25:44.046Z,976.17
2018-03-08T09:26:44.256Z,976.13
2018-03-08T09:27:44.470Z,976.17
2018-03-08T09:28:44.685Z,976.22
2018-03-08T09:29:44.892Z,976.20
2018-03-08T09:30:45.122Z,976.18
2018-03-08T09:31:45.356Z,976.22
2018-03-08T09:32:45.498Z,976.24
2018-03-08T09:33:45.712Z,976.22
2018-03-08T09:34:45.914Z,976.23
2018-03-08T09:35:46.132Z,976.23
2018-03-08T09:36:46.343Z,976.26
2018-03-08T09:37:46.648Z,976.25
2018-03-08T09:38:46.772Z,976.31
2018-03-08T09:39:46.996Z,976.29
2018-03-08T09:40:47.240Z,976.26
2018-03-08T09:41:47.422Z,976.19
2018-03-08T09:42:47.637Z,976.23
2018-03-08T09:43:47.906Z,976.17
2018-03-08T09:44:48.052Z,976.13
2018-03-08T09:45:48.269Z,976.12
2018-03-08T09:46:48.478Z,976.09
2018-03-08T09:47:48.708Z,976.11
2018-03-08T09:48:48.876Z,976.07
2018-03-08T09:49:49.094Z,976.08
2018-03-08T09:50:49.307Z,976.11
2018-03-08T09:51:49.568Z,976.11
2018-03-08T09:52:49.725Z,976.04
2018-03-08T09:53:49.942Z,976.05
2018-03-08T09:54:50.147Z,975.96
2018-03-08T09:55:50.361Z,976.04
2018-03-08T09:56:50.562Z,976.02
2018-03-08T09:57:50.771Z,975.99
2018-03-08T09:58:50.984Z,975.97
2018-03-08T09:59:51.193Z,975.99
2018-03-08T10:00:51.394Z,975.99
2018-03-08T10:01:51.616Z,976.01
2018-03-08T10:02:51.812Z,976.01
2018-03-08T10:03:52.027Z,975.99
2018-03-08T10:04:52.461Z,975.95
2018-03-08T10:05:52.452Z,975.96
2018-03-08T10:06:52.666Z,975.93
2018-03-08T10:07:52.876Z,975.94
2018-03-08T10:08:53.423Z,975.99
2018-03-08T10:09:53.308Z,975.99
2018-03-08T10:10:53.509Z,976.00
2018-03-08T10:11:53.721Z,976.04
2018-03-08T10:12:53.982Z,976.04
2018-03-08T10:13:54.140Z,976.04
2018-03-08T10:14:54.351Z,976.04
2018-03-08T10:15:54.564Z,976.00
2018-03-08T10:16:54.782Z,976.01
2018-03-08T10:17:54.985Z,976.02
2018-03-08T10:18:55.199Z,976.03
2018-03-08T10:19:55.414Z,976.01
2018-03-08T10:20:55.625Z,975.99
2018-03-08T10:21:55.837Z,976.04
2018-03-08T10:22:56.050Z,975.98
2018-03-08T10:23:56.261Z,975.97
2018-03-08T10:24:56.472Z,975.99
2018-03-08T10:25:56.668Z,975.95
2018-03-08T10:26:56.900Z,975.95
2018-03-08T10:27:57.110Z,975.96
2018-03-08T10:28:57.347Z,975.96
2018-03-08T10:29:57.522Z,975.90
2018-03-08T10:30:57.736Z,975.95
2018-03-08T10:31:57.947Z,975.98
2018-03-08T10:32:58.160Z,975.94
2018-03-08T10:33:58.373Z,975.90
2018-03-08T10:34:58.582Z,975.90
2018-03-08T10:35:58.792Z,975.96
2018-03-08T10:36:59.002Z,975.89
2018-03-08T10:37:59.214Z,975.87
2018-03-08T10:40:06.770Z,975.82
2018-03-08T10:41:07.071Z,975.85
2018-03-08T10:42:06.276Z,975.78
2018-03-08T10:43:07.618Z,975.85
2018-03-08T10:44:07.652Z,975.88
2018-03-08T10:45:07.937Z,975.89
2018-03-08T10:46:08.114Z,975.80
2018-03-08T10:47:01.221Z,975.81
2018-03-08T10:48:01.437Z,975.84
2018-03-08T10:50:01.866Z,975.73
2018-03-08T10:51:02.071Z,975.65
2018-03-08T10:52:02.282Z,975.71
2018-03-08T10:53:02.493Z,975.62
2018-03-08T10:54:02.704Z,975.67
2018-03-08T10:55:02.916Z,975.67
2018-03-08T10:56:03.126Z,975.68
2018-03-08T10:57:03.336Z,975.60
2018-03-08T10:58:03.548Z,975.52
2018-03-08T10:59:03.761Z,975.62
2018-03-08T11:00:03.974Z,975.66
2018-03-08T11:01:04.188Z,975.63
2018-03-08T11:02:04.398Z,975.61
2018-03-08T11:03:04.620Z,975.62
2018-03-08T11:04:04.820Z,975.64
2018-03-08T11:05:05.048Z,975.60
2018-03-08T11:06:05.243Z,975.59
2018-03-08T11:07:05.465Z,975.66
2018-03-08T11:08:05.676Z,975.59
2018-03-08T11:09:05.888Z,975.74
2018-03-08T11:10:06.098Z,975.66
2018-03-08T11:11:06.309Z,975.59
2018-03-08T11:12:06.530Z,975.64
2018-03-08T11:13:06.729Z,975.70
2018-03-08T11:14:06.941Z,975.66
2018-03-08T11:15:07.148Z,975.62
2018-03-08T11:16:07.364Z,975.60
2018-03-08T11:17:07.576Z,975.64
2018-03-08T11:18:07.788Z,975.69
2018-03-08T11:19:08.000Z,975.67
2018-03-08T11:20:08.213Z,975.59
2018-03-08T11:21:08.430Z,975.60
2018-03-08T11:22:08.643Z,975.61
2018-03-08T11:23:08.857Z,975.53
2018-03-08T11:24:09.064Z,975.62
2018-03-08T11:25:09.273Z,975.56
2018-03-08T11:26:09.482Z,975.72
2018-03-08T11:27:09.696Z,975.60
2018-03-08T11:28:09.908Z,975.65
2018-03-08T11:29:10.110Z,975.63
2018-03-08T11:30:10.324Z,975.73
2018-03-08T11:31:10.535Z,975.77
2018-03-08T11:32:10.739Z,975.66
2018-03-08T11:33:10.959Z,975.64
2018-03-08T11:34:11.171Z,975.72
2018-03-08T11:35:11.382Z,975.68
2018-03-08T11:36:11.598Z,975.65
2018-03-08T11:37:11.818Z,975.68
2018-03-08T11:38:12.015Z,975.67
2018-03-08T11:39:12.462Z,975.58
2018-03-08T11:40:12.438Z,975.63
2018-03-08T11:41:12.652Z,975.65
2018-03-08T11:42:12.864Z,975.53
2018-03-08T11:43:13.065Z,975.54
2018-03-08T11:44:13.437Z,975.49
2018-03-08T11:45:13.499Z,975.56
2018-03-08T11:46:13.710Z,975.66
2018-03-08T11:47:13.920Z,975.55
2018-03-08T11:48:14.137Z,975.54
2018-03-08T11:49:14.343Z,975.47
2018-03-08T11:50:14.554Z,975.53
2018-03-08T11:51:14.776Z,975.46
2018-03-08T11:52:14.987Z,975.43
2018-03-08T11:53:15.205Z,975.42
2018-03-08T11:54:16.300Z,975.45
2018-03-08T11:55:15.628Z,975.43
2018-03-08T11:56:15.835Z,975.42
2018-03-08T11:57:16.046Z,975.50
2018-03-08T11:58:16.255Z,975.42
2018-03-08T11:59:16.472Z,975.50
2018-03-08T12:00:16.704Z,975.42
2018-03-08T12:01:16.892Z,975.42
2018-03-08T12:02:17.105Z,975.47
2018-03-08T12:03:17.316Z,975.45
2018-03-08T12:04:17.529Z,975.43
2018-03-08T12:05:17.744Z,975.46
2018-03-08T12:06:17.948Z,975.40
2018-03-08T12:07:18.163Z,975.39
2018-03-08T12:08:18.397Z,975.45
2018-03-08T12:09:18.593Z,975.40
2018-03-08T12:10:18.822Z,975.40
2018-03-08T12:11:19.033Z,975.46
2018-03-08T12:12:19.245Z,975.48
2018-03-08T12:13:19.467Z,975.48
2018-03-08T12:14:19.660Z,975.45
2018-03-08T12:15:19.865Z,975.44
2018-03-08T12:16:20.082Z,975.39
2018-03-08T12:17:20.294Z,975.41
2018-03-08T12:18:20.504Z,975.45
2018-03-08T12:19:20.716Z,975.45
2018-03-08T12:20:20.928Z,975.45
2018-03-08T12:21:21.139Z,975.48
2018-03-08T12:22:21.352Z,975.47
2018-03-08T12:23:21.565Z,975.48
2018-03-08T12:24:21.774Z,975.45
2018-03-08T12:25:21.990Z,975.40
2018-03-08T12:26:22.195Z,975.44
2018-03-08T12:27:22.410Z,975.43
2018-03-08T12:28:22.623Z,975.43
2018-03-08T12:29:22.830Z,975.42
2018-03-08T12:30:23.043Z,975.37
2018-03-08T12:31:23.260Z,975.45
2018-03-08T12:32:23.458Z,975.44
2018-03-08T12:33:23.740Z,975.40
2018-03-08T12:34:23.887Z,975.41
2018-03-08T12:35:24.090Z,975.40